sensor_id;sensor_type;location;lat;lon;timestamp;pressure;altitude;pressure_sealevel;temperature;humidity
41712;BME280;27399;51.516;13.670;2022-08-07T00:00:56;101462.59;;;17.79;57.32
41712;BME280;27399;51.516;13.670;2022-08-07T00:03:21;101458.16;;;17.77;57.39
41712;BME280;27399;51.516;13.670;2022-08-07T00:05:48;101466.91;;;17.88;57.08
41712;BME280;27399;51.516;13.670;2022-08-07T00:08:16;101471.22;;;17.53;57.48
41712;BME280;27399;51.516;13.670;2022-08-07T00:10:43;101469.19;;;17.64;57.37
41712;BME280;27399;51.516;13.670;2022-08-07T00:13:08;101473.66;;;17.67;57.02
41712;BME280;27399;51.516;13.670;2022-08-07T00:15:34;101468.44;;;17.58;57.64
41712;BME280;27399;51.516;13.670;2022-08-07T00:17:59;101474.47;;;17.71;57.50
41712;BME280;27399;51.516;13.670;2022-08-07T00:20:25;101479.50;;;17.45;58.03
41712;BME280;27399;51.516;13.670;2022-08-07T00:22:50;101482.44;;;17.31;58.46
41712;BME280;27399;51.516;13.670;2022-08-07T00:25:15;101469.88;;;17.30;58.11
41712;BME280;27399;51.516;13.670;2022-08-07T00:27:41;101478.88;;;17.31;58.03
41712;BME280;27399;51.516;13.670;2022-08-07T00:30:07;101468.88;;;17.36;58.29
41712;BME280;27399;51.516;13.670;2022-08-07T00:32:33;101468.00;;;17.35;57.99
41712;BME280;27399;51.516;13.670;2022-08-07T00:34:58;101468.25;;;17.23;58.09
41712;BME280;27399;51.516;13.670;2022-08-07T00:37:24;101476.25;;;17.28;57.94
41712;BME280;27399;51.516;13.670;2022-08-07T00:39:50;101471.03;;;17.18;58.55
41712;BME280;27399;51.516;13.670;2022-08-07T00:42:18;101461.59;;;17.41;58.00
41712;BME280;27399;51.516;13.670;2022-08-07T00:44:44;101467.50;;;17.15;58.18
41712;BME280;27399;51.516;13.670;2022-08-07T00:47:09;101467.47;;;17.16;57.93
41712;BME280;27399;51.516;13.670;2022-08-07T00:49:34;101462.22;;;17.10;58.04
41712;BME280;27399;51.516;13.670;2022-08-07T00:52:00;101465.34;;;16.84;58.97
41712;BME280;27399;51.516;13.670;2022-08-07T00:54:25;101462.44;;;16.98;59.02
41712;BME280;27399;51.516;13.670;2022-08-07T00:56:50;101467.50;;;17.15;58.78
41712;BME280;27399;51.516;13.670;2022-08-07T00:59:16;101467.59;;;17.10;58.96
41712;BME280;27399;51.516;13.670;2022-08-07T01:01:42;101459.06;;;16.83;59.12
41712;BME280;27399;51.516;13.670;2022-08-07T01:04:07;101461.84;;;16.80;59.54
41712;BME280;27399;51.516;13.670;2022-08-07T01:06:33;101469.00;;;16.80;59.73
41712;BME280;27399;51.516;13.670;2022-08-07T01:08:59;101465.41;;;16.81;59.47
41712;BME280;27399;51.516;13.670;2022-08-07T01:11:25;101469.28;;;16.64;60.00
41712;BME280;27399;51.516;13.670;2022-08-07T01:13:51;101463.00;;;16.64;60.10
41712;BME280;27399;51.516;13.670;2022-08-07T01:16:16;101472.06;;;16.58;59.86
41712;BME280;27399;51.516;13.670;2022-08-07T01:18:42;101457.69;;;16.61;60.01
41712;BME280;27399;51.516;13.670;2022-08-07T01:21:15;101459.41;;;16.65;59.96
41712;BME280;27399;51.516;13.670;2022-08-07T01:23:42;101457.63;;;16.64;60.12
41712;BME280;27399;51.516;13.670;2022-08-07T01:26:08;101456.00;;;16.55;59.83
41712;BME280;27399;51.516;13.670;2022-08-07T01:28:34;101461.38;;;16.53;59.84
41712;BME280;27399;51.516;13.670;2022-08-07T01:31:00;101456.06;;;16.50;59.78
41712;BME280;27399;51.516;13.670;2022-08-07T01:33:26;101459.69;;;16.48;59.96
41712;BME280;27399;51.516;13.670;2022-08-07T01:35:51;101458.78;;;16.49;59.84
41712;BME280;27399;51.516;13.670;2022-08-07T01:38:17;101460.75;;;16.37;60.39
41712;BME280;27399;51.516;13.670;2022-08-07T01:40:42;101453.50;;;16.41;60.03
41712;BME280;27399;51.516;13.670;2022-08-07T01:43:09;101458.09;;;16.36;60.20
41712;BME280;27399;51.516;13.670;2022-08-07T01:45:35;101456.41;;;16.29;60.74
41712;BME280;27399;51.516;13.670;2022-08-07T01:48:00;101453.72;;;16.27;60.67
41712;BME280;27399;51.516;13.670;2022-08-07T01:50:26;101455.59;;;16.23;60.82
41712;BME280;27399;51.516;13.670;2022-08-07T01:52:55;101454.72;;;16.23;60.67
41712;BME280;27399;51.516;13.670;2022-08-07T01:55:24;101461.03;;;16.19;60.77
41712;BME280;27399;51.516;13.670;2022-08-07T01:57:51;101462.72;;;16.26;60.41
41712;BME280;27399;51.516;13.670;2022-08-07T02:00:17;101459.34;;;16.13;60.88
41712;BME280;27399;51.516;13.670;2022-08-07T02:03:02;101462.28;;;15.98;61.52
41712;BME280;27399;51.516;13.670;2022-08-07T02:05:32;101459.63;;;15.93;61.38
41712;BME280;27399;51.516;13.670;2022-08-07T02:08:00;101469.03;;;16.23;60.84
41712;BME280;27399;51.516;13.670;2022-08-07T02:10:26;101457.59;;;16.09;60.81
41712;BME280;27399;51.516;13.670;2022-08-07T02:12:52;101460.56;;;15.90;60.69
41712;BME280;27399;51.516;13.670;2022-08-07T02:15:21;101465.94;;;15.92;61.14
41712;BME280;27399;51.516;13.670;2022-08-07T02:17:46;101457.88;;;15.92;60.73
41712;BME280;27399;51.516;13.670;2022-08-07T02:20:13;101460.69;;;15.78;60.87
41712;BME280;27399;51.516;13.670;2022-08-07T02:22:40;101460.63;;;15.87;61.06
41712;BME280;27399;51.516;13.670;2022-08-07T02:25:06;101464.75;;;16.10;60.55
41712;BME280;27399;51.516;13.670;2022-08-07T02:27:32;101468.06;;;15.63;61.59
41712;BME280;27399;51.516;13.670;2022-08-07T02:29:58;101476.16;;;15.60;61.48
41712;BME280;27399;51.516;13.670;2022-08-07T02:32:25;101461.09;;;15.47;62.08
41712;BME280;27399;51.516;13.670;2022-08-07T02:34:50;101466.47;;;15.47;62.10
41712;BME280;27399;51.516;13.670;2022-08-07T02:37:17;101468.13;;;15.57;62.21
41712;BME280;27399;51.516;13.670;2022-08-07T02:39:43;101461.03;;;15.52;62.14
41712;BME280;27399;51.516;13.670;2022-08-07T02:42:10;101472.47;;;15.69;61.26
41712;BME280;27399;51.516;13.670;2022-08-07T02:44:36;101463.78;;;15.47;62.17
41712;BME280;27399;51.516;13.670;2022-08-07T02:47:04;101471.81;;;15.50;62.09
41712;BME280;27399;51.516;13.670;2022-08-07T02:49:29;101471.94;;;15.38;62.52
41712;BME280;27399;51.516;13.670;2022-08-07T02:51:55;101480.78;;;15.49;62.49
41712;BME280;27399;51.516;13.670;2022-08-07T02:54:22;101470.06;;;15.46;62.29
41712;BME280;27399;51.516;13.670;2022-08-07T02:56:50;101468.13;;;15.59;62.13
41712;BME280;27399;51.516;13.670;2022-08-07T02:59:17;101473.69;;;15.45;62.45
41712;BME280;27399;51.516;13.670;2022-08-07T03:01:43;101478.47;;;15.15;63.23
41712;BME280;27399;51.516;13.670;2022-08-07T03:04:09;101478.25;;;15.38;62.56
41712;BME280;27399;51.516;13.670;2022-08-07T03:06:35;101474.66;;;15.34;62.36
41712;BME280;27399;51.516;13.670;2022-08-07T03:09:02;101481.13;;;15.18;62.75
41712;BME280;27399;51.516;13.670;2022-08-07T03:11:28;101483.22;;;14.91;63.52
41712;BME280;27399;51.516;13.670;2022-08-07T03:13:54;101478.63;;;15.01;62.90
41712;BME280;27399;51.516;13.670;2022-08-07T03:16:19;101479.56;;;14.95;63.67
41712;BME280;27399;51.516;13.670;2022-08-07T03:18:45;101486.69;;;15.01;63.73
41712;BME280;27399;51.516;13.670;2022-08-07T03:21:10;101479.44;;;15.11;63.39
41712;BME280;27399;51.516;13.670;2022-08-07T03:23:36;101476.84;;;15.01;63.43
41712;BME280;27399;51.516;13.670;2022-08-07T03:26:02;101474.22;;;14.92;63.98
41712;BME280;27399;51.516;13.670;2022-08-07T03:28:29;101474.25;;;14.87;64.18
41712;BME280;27399;51.516;13.670;2022-08-07T03:30:55;101475.16;;;14.90;64.79
41712;BME280;27399;51.516;13.670;2022-08-07T03:33:40;101469.63;;;15.05;64.10
41712;BME280;27399;51.516;13.670;2022-08-07T03:36:07;101472.97;;;14.26;66.42
41712;BME280;27399;51.516;13.670;2022-08-07T03:38:33;101468.03;;;14.84;65.25
41712;BME280;27399;51.516;13.670;2022-08-07T03:41:00;101470.78;;;14.81;65.17
41712;BME280;27399;51.516;13.670;2022-08-07T03:43:26;101468.91;;;14.86;65.15
41712;BME280;27399;51.516;13.670;2022-08-07T03:45:51;101460.03;;;14.81;65.52
41712;BME280;27399;51.516;13.670;2022-08-07T03:48:17;101460.97;;;14.74;66.19
41712;BME280;27399;51.516;13.670;2022-08-07T03:50:42;101461.03;;;14.70;66.54
41712;BME280;27399;51.516;13.670;2022-08-07T03:53:09;101464.59;;;14.63;66.97
41712;BME280;27399;51.516;13.670;2022-08-07T03:55:35;101463.72;;;14.70;66.83
41712;BME280;27399;51.516;13.670;2022-08-07T03:58:02;101457.44;;;14.65;66.89
41712;BME280;27399;51.516;13.670;2022-08-07T04:00:27;101461.91;;;14.71;66.71
41712;BME280;27399;51.516;13.670;2022-08-07T04:02:53;101457.44;;;14.68;66.54
41712;BME280;27399;51.516;13.670;2022-08-07T04:05:19;101454.88;;;14.50;66.68
41712;BME280;27399;51.516;13.670;2022-08-07T04:07:45;101453.88;;;14.68;67.00
41712;BME280;27399;51.516;13.670;2022-08-07T04:10:11;101465.59;;;14.50;68.04
41712;BME280;27399;51.516;13.670;2022-08-07T04:12:36;101461.19;;;14.49;68.30
41712;BME280;27399;51.516;13.670;2022-08-07T04:15:02;101458.41;;;14.58;68.10
41712;BME280;27399;51.516;13.670;2022-08-07T04:17:27;101464.59;;;14.68;67.70
41712;BME280;27399;51.516;13.670;2022-08-07T04:19:53;101469.19;;;14.52;68.17
41712;BME280;27399;51.516;13.670;2022-08-07T04:22:18;101464.59;;;14.68;67.97
41712;BME280;27399;51.516;13.670;2022-08-07T04:24:45;101473.50;;;14.75;67.58
41712;BME280;27399;51.516;13.670;2022-08-07T04:27:11;101466.47;;;14.58;68.08
41712;BME280;27399;51.516;13.670;2022-08-07T04:29:37;101465.50;;;14.68;68.08
41712;BME280;27399;51.516;13.670;2022-08-07T04:32:02;101474.66;;;14.38;69.16
41712;BME280;27399;51.516;13.670;2022-08-07T04:34:28;101474.56;;;14.53;69.29
41712;BME280;27399;51.516;13.670;2022-08-07T04:36:54;101469.97;;;14.68;69.00
41712;BME280;27399;51.516;13.670;2022-08-07T04:39:19;101468.19;;;14.68;69.68
41712;BME280;27399;51.516;13.670;2022-08-07T04:44:47;101466.41;;;14.63;68.94
41712;BME280;27399;51.516;13.670;2022-08-07T04:47:18;101465.56;;;14.59;70.31
41712;BME280;27399;51.516;13.670;2022-08-07T04:54:59;101472.63;;;14.72;70.66
41712;BME280;27399;51.516;13.670;2022-08-07T04:57:26;101481.75;;;14.47;71.80
41712;BME280;27399;51.516;13.670;2022-08-07T05:05:02;101476.25;;;14.64;71.01
41712;BME280;27399;51.516;13.670;2022-08-07T05:07:39;101479.78;;;14.72;71.42
41712;BME280;27399;51.516;13.670;2022-08-07T05:12:35;101493.94;;;14.93;70.55
41712;BME280;27399;51.516;13.670;2022-08-07T05:15:04;101484.91;;;14.98;70.25
41712;BME280;27399;51.516;13.670;2022-08-07T05:18:02;101491.13;;;15.05;70.78
41712;BME280;27399;51.516;13.670;2022-08-07T05:20:30;101488.50;;;15.00;71.56
41712;BME280;27399;51.516;13.670;2022-08-07T05:22:58;101491.63;;;15.43;70.53
41712;BME280;27399;51.516;13.670;2022-08-07T05:25:24;101493.56;;;15.28;71.56
41712;BME280;27399;51.516;13.670;2022-08-07T05:27:51;101491.72;;;15.32;72.42
41712;BME280;27399;51.516;13.670;2022-08-07T05:30:17;101485.19;;;15.55;71.40
41712;BME280;27399;51.516;13.670;2022-08-07T05:32:43;101488.78;;;15.55;71.96
41712;BME280;27399;51.516;13.670;2022-08-07T05:35:11;101488.78;;;15.55;72.58
41712;BME280;27399;51.516;13.670;2022-08-07T05:37:37;101486.03;;;15.58;72.66
41712;BME280;27399;51.516;13.670;2022-08-07T05:40:04;101484.94;;;15.76;72.79
41712;BME280;27399;51.516;13.670;2022-08-07T05:42:29;101480.22;;;15.95;72.73
41712;BME280;27399;51.516;13.670;2022-08-07T05:44:55;101480.97;;;16.07;71.86
41712;BME280;27399;51.516;13.670;2022-08-07T05:47:21;101477.22;;;16.16;72.35
41712;BME280;27399;51.516;13.670;2022-08-07T05:49:50;101488.91;;;16.16;72.79
41712;BME280;27399;51.516;13.670;2022-08-07T05:52:19;101481.69;;;16.17;73.28
41712;BME280;27399;51.516;13.670;2022-08-07T05:54:44;101490.41;;;16.36;71.45
41712;BME280;27399;51.516;13.670;2022-08-07T05:57:10;101483.00;;;16.50;72.07
41712;BME280;27399;51.516;13.670;2022-08-07T05:59:36;101490.00;;;16.59;72.07
41712;BME280;27399;51.516;13.670;2022-08-07T06:02:03;101481.53;;;16.84;71.25
41712;BME280;27399;51.516;13.670;2022-08-07T06:04:29;101485.69;;;16.49;72.61
41712;BME280;27399;51.516;13.670;2022-08-07T06:06:56;101492.34;;;16.81;71.92
41712;BME280;27399;51.516;13.670;2022-08-07T06:09:23;101493.03;;;16.94;72.22
41712;BME280;27399;51.516;13.670;2022-08-07T06:11:48;101488.56;;;16.94;71.96
41712;BME280;27399;51.516;13.670;2022-08-07T06:14:14;101501.16;;;17.41;70.07
41712;BME280;27399;51.516;13.670;2022-08-07T06:16:39;101495.97;;;17.30;70.72
41712;BME280;27399;51.516;13.670;2022-08-07T06:19:08;101498.59;;;17.34;71.57
41712;BME280;27399;51.516;13.670;2022-08-07T06:21:33;101496.03;;;17.72;68.03
41712;BME280;27399;51.516;13.670;2022-08-07T06:23:59;101491.22;;;17.87;68.20
41712;BME280;27399;51.516;13.670;2022-08-07T06:26:25;101494.56;;;18.00;65.46
41712;BME280;27399;51.516;13.670;2022-08-07T06:28:51;101493.81;;;18.32;64.59
41712;BME280;27399;51.516;13.670;2022-08-07T06:31:17;101489.91;;;18.06;66.73
41712;BME280;27399;51.516;13.670;2022-08-07T06:33:43;101484.56;;;18.42;64.00
41712;BME280;27399;51.516;13.670;2022-08-07T06:36:10;101487.88;;;18.54;63.38
41712;BME280;27399;51.516;13.670;2022-08-07T06:38:36;101490.28;;;18.66;62.17
41712;BME280;27399;51.516;13.670;2022-08-07T06:41:01;101486.34;;;18.80;62.52
41712;BME280;27399;51.516;13.670;2022-08-07T06:43:28;101495.13;;;18.88;61.41
41712;BME280;27399;51.516;13.670;2022-08-07T06:46:00;101489.31;;;19.05;62.85
41712;BME280;27399;51.516;13.670;2022-08-07T06:48:25;101497.47;;;19.03;61.21
41712;BME280;27399;51.516;13.670;2022-08-07T06:50:52;101493.16;;;19.29;60.64
41712;BME280;27399;51.516;13.670;2022-08-07T06:53:19;101500.34;;;19.30;60.30
41712;BME280;27399;51.516;13.670;2022-08-07T06:55:45;101490.06;;;19.43;60.10
41712;BME280;27399;51.516;13.670;2022-08-07T06:58:11;101498.47;;;19.65;59.84
41712;BME280;27399;51.516;13.670;2022-08-07T07:00:39;101493.50;;;19.80;60.19
41712;BME280;27399;51.516;13.670;2022-08-07T07:03:05;101495.03;;;19.90;60.04
41712;BME280;27399;51.516;13.670;2022-08-07T07:05:31;101488.53;;;19.96;60.79
41712;BME280;27399;51.516;13.670;2022-08-07T07:07:56;101488.16;;;20.08;58.94
41712;BME280;27399;51.516;13.670;2022-08-07T07:10:28;101488.00;;;20.15;59.51
41712;BME280;27399;51.516;13.670;2022-08-07T07:12:55;101488.31;;;20.32;59.69
41712;BME280;27399;51.516;13.670;2022-08-07T07:18:05;101488.34;;;20.59;57.99
41712;BME280;27399;51.516;13.670;2022-08-07T07:20:38;101481.97;;;20.88;57.02
41712;BME280;27399;51.516;13.670;2022-08-07T07:23:06;101486.13;;;20.99;56.94
41712;BME280;27399;51.516;13.670;2022-08-07T07:25:32;101483.56;;;21.19;56.70
41712;BME280;27399;51.516;13.670;2022-08-07T07:28:06;101484.38;;;21.47;56.17
41712;BME280;27399;51.516;13.670;2022-08-07T07:30:37;101479.25;;;21.39;56.18
41712;BME280;27399;51.516;13.670;2022-08-07T07:33:04;101480.03;;;21.68;56.03
41712;BME280;27399;51.516;13.670;2022-08-07T07:35:30;101476.22;;;21.72;56.03
41712;BME280;27399;51.516;13.670;2022-08-07T07:37:58;101480.72;;;21.73;55.15
41712;BME280;27399;51.516;13.670;2022-08-07T07:40:25;101478.06;;;21.72;54.48
41712;BME280;27399;51.516;13.670;2022-08-07T07:42:52;101466.59;;;21.87;54.44
41712;BME280;27399;51.516;13.670;2022-08-07T07:45:19;101467.25;;;21.70;54.61
41712;BME280;27399;51.516;13.670;2022-08-07T07:47:45;101462.84;;;22.13;55.43
41712;BME280;27399;51.516;13.670;2022-08-07T07:50:12;101470.13;;;22.13;54.77
41712;BME280;27399;51.516;13.670;2022-08-07T07:52:38;101458.53;;;22.54;53.45
41712;BME280;27399;51.516;13.670;2022-08-07T07:55:04;101457.31;;;22.61;53.95
41712;BME280;27399;51.516;13.670;2022-08-07T07:57:30;101459.47;;;22.53;51.61
41712;BME280;27399;51.516;13.670;2022-08-07T07:59:55;101456.66;;;22.32;51.48
41712;BME280;27399;51.516;13.670;2022-08-07T08:02:22;101459.28;;;22.57;51.28
41712;BME280;27399;51.516;13.670;2022-08-07T08:04:50;101457.13;;;22.86;51.59
41712;BME280;27399;51.516;13.670;2022-08-07T08:07:16;101449.03;;;23.05;51.06
41712;BME280;27399;51.516;13.670;2022-08-07T08:09:42;101450.78;;;22.86;49.37
41712;BME280;27399;51.516;13.670;2022-08-07T08:12:08;101449.38;;;22.77;48.19
41712;BME280;27399;51.516;13.670;2022-08-07T08:14:34;101451.34;;;22.94;49.34
41712;BME280;27399;51.516;13.670;2022-08-07T08:17:00;101453.91;;;22.97;50.72
41712;BME280;27399;51.516;13.670;2022-08-07T08:19:26;101445.50;;;23.24;49.92
41712;BME280;27399;51.516;13.670;2022-08-07T08:21:52;101451.75;;;23.05;50.26
41712;BME280;27399;51.516;13.670;2022-08-07T08:24:40;101455.56;;;23.22;49.02
41712;BME280;27399;51.516;13.670;2022-08-07T08:27:25;101445.22;;;23.30;49.52
41712;BME280;27399;51.516;13.670;2022-08-07T08:29:54;101455.69;;;23.19;49.57
41712;BME280;27399;51.516;13.670;2022-08-07T08:32:20;101447.69;;;23.36;49.29
41712;BME280;27399;51.516;13.670;2022-08-07T08:34:47;101446.16;;;23.29;49.49
41712;BME280;27399;51.516;13.670;2022-08-07T08:37:15;101444.19;;;23.12;48.94
41712;BME280;27399;51.516;13.670;2022-08-07T08:39:42;101445.00;;;23.35;48.54
41712;BME280;27399;51.516;13.670;2022-08-07T08:42:55;101437.75;;;23.35;49.54
41712;BME280;27399;51.516;13.670;2022-08-07T08:45:00;101443.78;;;23.42;49.30
41712;BME280;27399;51.516;13.670;2022-08-07T08:47:42;101435.09;;;23.53;48.22
41712;BME280;27399;51.516;13.670;2022-08-07T08:52:35;101431.72;;;23.67;48.53
41712;BME280;27399;51.516;13.670;2022-08-07T09:00:04;101436.00;;;23.73;49.62
41712;BME280;27399;51.516;13.670;2022-08-07T09:05:21;101427.81;;;23.92;49.01
41712;BME280;27399;51.516;13.670;2022-08-07T09:07:50;101434.13;;;23.92;49.73
41712;BME280;27399;51.516;13.670;2022-08-07T09:10:22;101434.16;;;23.54;49.32
41712;BME280;27399;51.516;13.670;2022-08-07T09:13:08;101425.81;;;23.76;49.60
41712;BME280;27399;51.516;13.670;2022-08-07T09:15:37;101431.22;;;23.78;48.75
41712;BME280;27399;51.516;13.670;2022-08-07T09:20:30;101425.41;;;23.86;48.52
41712;BME280;27399;51.516;13.670;2022-08-07T09:23:12;101432.41;;;23.72;48.34
41712;BME280;27399;51.516;13.670;2022-08-07T09:28:34;101428.25;;;23.63;46.92
41712;BME280;27399;51.516;13.670;2022-08-07T09:31:05;101431.34;;;23.75;48.08
41712;BME280;27399;51.516;13.670;2022-08-07T09:36:08;101406.91;;;23.92;46.05
41712;BME280;27399;51.516;13.670;2022-08-07T09:38:50;101405.81;;;24.33;46.83
41712;BME280;27399;51.516;13.670;2022-08-07T09:41:31;101403.06;;;24.52;46.97
41712;BME280;27399;51.516;13.670;2022-08-07T09:44:18;101408.63;;;24.68;46.45
41712;BME280;27399;51.516;13.670;2022-08-07T09:49:24;101401.44;;;25.01;44.41
41712;BME280;27399;51.516;13.670;2022-08-07T09:57:23;101397.09;;;25.14;45.05
41712;BME280;27399;51.516;13.670;2022-08-07T10:00:00;101382.91;;;25.57;46.07
41712;BME280;27399;51.516;13.670;2022-08-07T10:02:33;101393.19;;;25.02;44.09
41712;BME280;27399;51.516;13.670;2022-08-07T10:11:02;101377.56;;;25.22;44.47
41712;BME280;27399;51.516;13.670;2022-08-07T10:13:30;101376.72;;;25.04;44.03
41712;BME280;27399;51.516;13.670;2022-08-07T10:21:39;101365.97;;;25.50;43.98
41712;BME280;27399;51.516;13.670;2022-08-07T10:37:09;101342.22;;;25.68;43.35
41712;BME280;27399;51.516;13.670;2022-08-07T10:52:50;101326.72;;;25.69;42.07
41712;BME280;27399;51.516;13.670;2022-08-07T10:55:19;101326.03;;;25.65;43.06
41712;BME280;27399;51.516;13.670;2022-08-07T11:00:28;101323.75;;;26.04;43.59
41712;BME280;27399;51.516;13.670;2022-08-07T11:03:05;101312.13;;;26.01;42.40
41712;BME280;27399;51.516;13.670;2022-08-07T11:08:08;101306.28;;;25.60;42.39
41712;BME280;27399;51.516;13.670;2022-08-07T11:10:54;101291.09;;;25.87;41.09
41712;BME280;27399;51.516;13.670;2022-08-07T11:13:24;101293.84;;;25.55;41.47
41712;BME280;27399;51.516;13.670;2022-08-07T11:15:54;101299.72;;;25.31;41.79
41712;BME280;27399;51.516;13.670;2022-08-07T11:18:28;101298.22;;;25.73;42.32
41712;BME280;27399;51.516;13.670;2022-08-07T11:20:55;101289.19;;;25.57;42.75
41712;BME280;27399;51.516;13.670;2022-08-07T11:23:25;101287.69;;;25.67;43.49
41712;BME280;27399;51.516;13.670;2022-08-07T11:26:20;101300.06;;;25.89;43.71
41712;BME280;27399;51.516;13.670;2022-08-07T11:28:46;101280.22;;;26.01;42.08
41712;BME280;27399;51.516;13.670;2022-08-07T11:31:54;101280.19;;;25.71;42.49
41712;BME280;27399;51.516;13.670;2022-08-07T11:37:05;101264.41;;;26.06;41.95
41712;BME280;27399;51.516;13.670;2022-08-07T11:42:25;101261.03;;;26.62;42.83
41712;BME280;27399;51.516;13.670;2022-08-07T11:44:57;101264.50;;;26.80;43.30
41712;BME280;27399;51.516;13.670;2022-08-07T11:50:15;101250.69;;;26.82;41.77
41712;BME280;27399;51.516;13.670;2022-08-07T11:53:01;101252.78;;;27.20;41.80
41712;BME280;27399;51.516;13.670;2022-08-07T11:58:20;101241.72;;;26.80;40.67
41712;BME280;27399;51.516;13.670;2022-08-07T12:03:35;101240.50;;;27.13;40.75
41712;BME280;27399;51.516;13.670;2022-08-07T12:09:18;101242.00;;;27.46;40.87
41712;BME280;27399;51.516;13.670;2022-08-07T12:11:24;101240.25;;;27.30;40.85
41712;BME280;27399;51.516;13.670;2022-08-07T12:16:20;101234.19;;;27.40;40.82
41712;BME280;27399;51.516;13.670;2022-08-07T12:21:41;101223.69;;;27.74;40.31
41712;BME280;27399;51.516;13.670;2022-08-07T12:24:32;101221.41;;;27.80;40.65
41712;BME280;27399;51.516;13.670;2022-08-07T12:26:57;101218.41;;;27.16;41.01
41712;BME280;27399;51.516;13.670;2022-08-07T12:29:30;101211.06;;;27.58;40.83
41712;BME280;27399;51.516;13.670;2022-08-07T12:34:25;101201.09;;;27.43;40.88
41712;BME280;27399;51.516;13.670;2022-08-07T12:36:53;101201.22;;;26.99;41.20
41712;BME280;27399;51.516;13.670;2022-08-07T12:39:20;101201.72;;;27.33;41.64
41712;BME280;27399;51.516;13.670;2022-08-07T12:41:47;101207.66;;;27.13;41.20
41712;BME280;27399;51.516;13.670;2022-08-07T12:44:13;101201.78;;;27.46;40.83
41712;BME280;27399;51.516;13.670;2022-08-07T12:51:59;101195.06;;;27.37;40.65
41712;BME280;27399;51.516;13.670;2022-08-07T12:57:26;101190.25;;;27.41;40.45
41712;BME280;27399;51.516;13.670;2022-08-07T12:59:54;101196.94;;;26.37;40.59
41712;BME280;27399;51.516;13.670;2022-08-07T13:17:53;101171.28;;;27.65;40.40
41712;BME280;27399;51.516;13.670;2022-08-07T13:20:24;101165.47;;;27.57;39.39
41712;BME280;27399;51.516;13.670;2022-08-07T13:28:09;101153.56;;;27.84;39.95
41712;BME280;27399;51.516;13.670;2022-08-07T13:30:31;101156.81;;;27.36;39.75
41712;BME280;27399;51.516;13.670;2022-08-07T13:43:12;101146.03;;;27.47;38.79
41712;BME280;27399;51.516;13.670;2022-08-07T13:45:40;101144.16;;;27.88;39.62
41712;BME280;27399;51.516;13.670;2022-08-07T13:48:07;101133.06;;;27.77;39.41
41712;BME280;27399;51.516;13.670;2022-08-07T13:50:35;101127.81;;;27.87;39.69
41712;BME280;27399;51.516;13.670;2022-08-07T13:53:02;101134.38;;;27.71;39.16
41712;BME280;27399;51.516;13.670;2022-08-07T13:55:29;101129.28;;;27.52;38.64
41712;BME280;27399;51.516;13.670;2022-08-07T13:58:13;101120.88;;;27.68;38.73
41712;BME280;27399;51.516;13.670;2022-08-07T14:00:59;101122.88;;;27.79;39.76
41712;BME280;27399;51.516;13.670;2022-08-07T14:03:25;101121.97;;;27.65;39.65
41712;BME280;27399;51.516;13.670;2022-08-07T14:05:54;101113.34;;;27.84;39.68
41712;BME280;27399;51.516;13.670;2022-08-07T14:08:24;101112.47;;;27.97;39.79
41712;BME280;27399;51.516;13.670;2022-08-07T14:10:51;101113.66;;;27.80;39.82
41712;BME280;27399;51.516;13.670;2022-08-07T14:13:21;101116.41;;;27.80;39.68
41712;BME280;27399;51.516;13.670;2022-08-07T14:15:52;101112.44;;;27.58;39.05
41712;BME280;27399;51.516;13.670;2022-08-07T14:18:23;101106.03;;;27.45;39.12
41712;BME280;27399;51.516;13.670;2022-08-07T14:20:52;101107.84;;;27.72;40.57
41712;BME280;27399;51.516;13.670;2022-08-07T14:23:24;101105.22;;;27.43;40.26
41712;BME280;27399;51.516;13.670;2022-08-07T14:25:54;101100.31;;;27.35;39.31
41712;BME280;27399;51.516;13.670;2022-08-07T14:28:22;101097.84;;;27.30;39.09
41712;BME280;27399;51.516;13.670;2022-08-07T14:30:48;101102.38;;;27.04;39.66
41712;BME280;27399;51.516;13.670;2022-08-07T14:33:15;101092.72;;;27.66;40.00
41712;BME280;27399;51.516;13.670;2022-08-07T14:35:40;101100.50;;;27.72;39.92
41712;BME280;27399;51.516;13.670;2022-08-07T14:38:07;101100.16;;;27.51;39.79
41712;BME280;27399;51.516;13.670;2022-08-07T14:40:33;101096.91;;;27.72;39.72
41712;BME280;27399;51.516;13.670;2022-08-07T14:43:08;101092.03;;;27.62;39.92
41712;BME280;27399;51.516;13.670;2022-08-07T14:45:53;101092.59;;;27.67;40.20
41712;BME280;27399;51.516;13.670;2022-08-07T14:48:20;101097.09;;;27.68;40.14
41712;BME280;27399;51.516;13.670;2022-08-07T14:50:49;101095.03;;;27.72;40.45
41712;BME280;27399;51.516;13.670;2022-08-07T14:53:16;101097.09;;;27.56;39.80
41712;BME280;27399;51.516;13.670;2022-08-07T14:55:43;101088.97;;;27.54;39.77
41712;BME280;27399;51.516;13.670;2022-08-07T14:58:12;101084.53;;;27.38;40.20
41712;BME280;27399;51.516;13.670;2022-08-07T15:00:40;101097.44;;;27.36;40.19
41712;BME280;27399;51.516;13.670;2022-08-07T15:03:07;101092.28;;;27.19;39.77
41712;BME280;27399;51.516;13.670;2022-08-07T15:05:33;101090.63;;;27.57;40.26
41712;BME280;27399;51.516;13.670;2022-08-07T15:07:59;101097.50;;;27.22;39.61
41712;BME280;27399;51.516;13.670;2022-08-07T15:10:27;101091.50;;;27.57;40.15
41712;BME280;27399;51.516;13.670;2022-08-07T15:12:54;101083.81;;;27.22;39.71
41712;BME280;27399;51.516;13.670;2022-08-07T15:15:23;101082.22;;;27.32;39.40
41712;BME280;27399;51.516;13.670;2022-08-07T15:17:55;101078.16;;;27.38;39.68